Time;durP1;ratioP1;P1;durP2;ratioP2;P2;SDS_P1;SDS_P2;PMS_P1;PMS_P2;Temp;Humidity;BMP_temperature;BMP_pressure;BME280_temperature;BME280_humidity;BME280_pressure;Samples;Min_cycle;Max_cycle;Signal;HPM_P1;HPM_P2
2022/07/19 00:00:59;;;;;;;3.03;1.90;;;23.10;59.60;;;;;;10389881;28;20108;-65
2022/07/19 00:06:00;;;;;;;2.40;1.73;;;23.10;59.50;;;;;;10380517;28;20029;-64
2022/07/19 00:11:01;;;;;;;2.42;2.03;;;23.10;59.50;;;;;;10368065;28;20607;-64
2022/07/19 00:16:01;;;;;;;2.47;1.88;;;23.10;59.50;;;;;;10363844;28;20034;-64
2022/07/19 00:21:02;;;;;;;3.70;1.75;;;23.10;59.50;;;;;;10402582;28;20040;-64
2022/07/19 00:26:04;;;;;;;2.78;1.60;;;23.10;59.50;;;;;;10389554;28;20037;-65
2022/07/19 00:31:05;;;;;;;2.40;1.70;;;23.10;59.40;;;;;;10385219;28;20029;-65
2022/07/19 00:36:06;;;;;;;2.15;1.55;;;23.10;59.40;;;;;;10367675;28;20052;-64
2022/07/19 00:41:07;;;;;;;3.58;1.90;;;23.10;59.50;;;;;;10388827;28;20537;-65
2022/07/19 00:46:15;;;;;;;2.33;1.23;;;23.10;59.50;;;;;;10370165;28;20030;-64
2022/07/19 00:51:18;;;;;;;2.47;1.52;;;23.10;59.50;;;;;;10375709;28;20038;-64
2022/07/19 00:56:19;;;;;;;4.57;2.15;;;23.10;59.40;;;;;;10374523;28;20021;-64
2022/07/19 01:01:20;;;;;;;2.80;1.77;;;23.10;59.40;;;;;;10375760;28;20026;-65
2022/07/19 01:06:22;;;;;;;2.25;1.50;;;23.10;59.40;;;;;;10388062;28;20137;-64
2022/07/19 01:11:23;;;;;;;2.58;1.73;;;23.10;59.50;;;;;;10373658;28;20088;-64
2022/07/19 01:16:24;;;;;;;2.75;1.90;;;23.10;59.50;;;;;;10373912;28;20385;-66
2022/07/19 01:21:26;;;;;;;2.67;1.63;;;23.10;59.50;;;;;;10380820;28;20034;-64
2022/07/19 01:26:26;;;;;;;2.70;1.77;;;23.10;59.50;;;;;;10391846;28;20516;-64
2022/07/19 01:31:27;;;;;;;2.50;1.70;;;23.10;59.60;;;;;;10391270;28;20113;-64
2022/07/19 01:36:28;;;;;;;2.45;1.80;;;23.10;59.50;;;;;;10373249;28;20148;-64
2022/07/19 01:41:29;;;;;;;3.35;1.90;;;23.10;59.50;;;;;;10372820;28;20045;-64
2022/07/19 01:46:29;;;;;;;2.45;2.03;;;23.10;59.50;;;;;;10387754;28;20037;-64
2022/07/19 01:51:30;;;;;;;3.22;2.47;;;23.10;59.60;;;;;;10382153;28;20462;-65
2022/07/19 01:56:31;;;;;;;2.17;1.80;;;23.10;59.60;;;;;;10371395;28;20079;-65
2022/07/19 02:01:31;;;;;;;2.65;2.10;;;23.10;59.60;;;;;;10392648;28;20034;-65
2022/07/19 02:06:32;;;;;;;2.00;1.63;;;23.10;59.50;;;;;;10390256;28;20033;-64
2022/07/19 02:11:35;;;;;;;2.10;1.60;;;23.10;59.60;;;;;;10413909;28;20484;-64
2022/07/19 02:16:38;;;;;;;2.58;1.70;;;23.10;59.60;;;;;;10394433;28;20040;-65
2022/07/19 02:21:39;;;;;;;3.15;1.98;;;23.10;59.60;;;;;;10393722;28;20026;-65
2022/07/19 02:26:40;;;;;;;2.40;1.98;;;23.10;59.60;;;;;;10373411;28;20040;-64
2022/07/19 02:31:41;;;;;;;2.83;1.73;;;23.10;59.60;;;;;;10389155;28;20038;-64
2022/07/19 02:36:42;;;;;;;2.47;1.50;;;23.00;59.60;;;;;;10371249;28;20095;-64
2022/07/19 02:41:42;;;;;;;3.00;1.90;;;23.00;59.60;;;;;;10370667;28;20132;-64
2022/07/19 02:46:43;;;;;;;2.75;1.90;;;23.00;59.50;;;;;;10389831;28;20083;-65
2022/07/19 02:51:44;;;;;;;2.40;1.52;;;23.00;59.50;;;;;;10398150;28;20040;-65
2022/07/19 02:56:45;;;;;;;2.40;1.92;;;23.00;59.50;;;;;;10411533;28;20468;-64
2022/07/19 03:01:45;;;;;;;2.50;2.03;;;23.10;59.60;;;;;;10371919;28;20033;-64
2022/07/19 03:06:46;;;;;;;2.38;1.80;;;23.00;59.50;;;;;;10403383;28;20035;-64
2022/07/19 03:11:47;;;;;;;2.75;1.88;;;23.00;59.50;;;;;;10383175;28;20022;-64
2022/07/19 03:16:48;;;;;;;2.55;2.05;;;23.00;59.50;;;;;;10408196;28;20124;-64
2022/07/19 03:21:49;;;;;;;2.10;1.90;;;23.00;59.50;;;;;;10403881;28;20101;-65
2022/07/19 03:26:49;;;;;;;2.50;1.77;;;23.00;59.50;;;;;;10369747;28;20554;-64
2022/07/19 03:31:50;;;;;;;1.90;1.58;;;23.00;59.50;;;;;;10376778;28;20030;-64
2022/07/19 03:36:51;;;;;;;1.88;1.60;;;23.00;59.50;;;;;;10367047;28;20401;-64
2022/07/19 03:41:52;;;;;;;2.80;1.77;;;23.00;59.60;;;;;;10387017;28;20103;-64
2022/07/19 03:46:52;;;;;;;2.40;1.70;;;23.00;59.60;;;;;;10369633;28;20493;-64
2022/07/19 03:51:53;;;;;;;2.42;1.88;;;23.00;59.50;;;;;;10367677;28;20037;-65
2022/07/19 03:56:55;;;;;;;2.75;2.00;;;23.00;59.50;;;;;;10405277;28;20044;-64
2022/07/19 04:01:56;;;;;;;2.35;1.70;;;23.00;59.60;;;;;;10382140;28;20451;-64
2022/07/19 04:06:56;;;;;;;4.38;1.90;;;23.00;59.60;;;;;;10388240;28;20084;-64
2022/07/19 04:11:57;;;;;;;3.47;1.90;;;23.00;59.60;;;;;;10387313;28;20129;-65
2022/07/19 04:16:58;;;;;;;3.20;2.00;;;23.00;60.00;;;;;;10388358;28;20034;-65
2022/07/19 04:21:59;;;;;;;2.70;2.00;;;23.00;60.40;;;;;;10374783;28;20426;-65
2022/07/19 04:27:00;;;;;;;3.28;2.38;;;23.00;60.00;;;;;;10365487;28;20038;-65
2022/07/19 04:32:00;;;;;;;4.43;2.05;;;23.00;60.20;;;;;;10395182;28;20037;-65
2022/07/19 04:37:01;;;;;;;3.50;2.80;;;23.00;59.80;;;;;;10390985;28;20128;-65
2022/07/19 04:42:02;;;;;;;3.95;3.05;;;23.00;60.60;;;;;;10373094;28;20145;-65
2022/07/19 04:47:03;;;;;;;3.42;2.83;;;23.00;60.90;;;;;;10381833;28;20033;-65
2022/07/19 04:52:04;;;;;;;4.07;3.67;;;23.00;60.60;;;;;;10382663;28;20109;-64
2022/07/19 04:57:04;;;;;;;3.53;2.83;;;23.10;61.20;;;;;;10368729;28;20509;-64
2022/07/19 05:02:05;;;;;;;6.25;3.92;;;23.10;61.20;;;;;;10391827;28;20026;-64
2022/07/19 05:07:06;;;;;;;5.15;4.35;;;23.10;60.90;;;;;;10407585;28;20171;-65
2022/07/19 05:12:09;;;;;;;7.72;4.70;;;23.10;59.80;;;;;;10407351;28;20021;-65
2022/07/19 05:17:10;;;;;;;5.70;4.78;;;23.00;60.60;;;;;;10404229;28;20025;-65
2022/07/19 05:22:10;;;;;;;8.80;4.43;;;23.10;60.40;;;;;;10380312;28;20046;-65
2022/07/19 05:27:11;;;;;;;9.82;5.22;;;23.00;59.70;;;;;;10367168;28;20963;-65
2022/07/19 05:32:12;;;;;;;10.73;5.18;;;23.00;59.90;;;;;;10376357;28;20137;-65
2022/07/19 05:37:13;;;;;;;13.48;6.38;;;23.00;60.00;;;;;;10373097;28;20538;-65
2022/07/19 05:42:13;;;;;;;12.80;5.35;;;23.00;60.10;;;;;;10376215;28;20044;-65
2022/07/19 05:47:15;;;;;;;11.07;4.88;;;23.00;60.20;;;;;;10385025;28;20037;-65
2022/07/19 05:52:16;;;;;;;11.02;4.72;;;23.00;60.30;;;;;;10372176;28;20048;-65
2022/07/19 05:57:17;;;;;;;7.90;4.88;;;23.00;60.50;;;;;;10372188;28;20032;-65
2022/07/19 06:02:17;;;;;;;9.35;4.93;;;23.00;60.50;;;;;;10373457;28;20034;-64
2022/07/19 06:07:18;;;;;;;16.83;7.47;;;23.00;60.70;;;;;;10361888;28;20469;-65
2022/07/19 06:12:19;;;;;;;12.40;5.35;;;23.00;60.90;;;;;;10376117;28;20032;-65
2022/07/19 06:17:19;;;;;;;9.60;5.05;;;23.00;60.90;;;;;;10375586;28;20034;-64
2022/07/19 06:22:20;;;;;;;10.43;4.80;;;23.00;61.20;;;;;;10371367;28;20033;-63
2022/07/19 06:27:21;;;;;;;10.02;4.35;;;23.00;61.30;;;;;;10379351;28;20056;-63
2022/07/19 06:32:21;;;;;;;6.68;5.18;;;23.00;61.40;;;;;;10383102;28;20176;-64
2022/07/19 06:37:22;;;;;;;9.63;5.53;;;23.00;61.00;;;;;;10386182;28;20026;-64
2022/07/19 06:42:23;;;;;;;8.70;4.57;;;23.00;61.00;;;;;;10388897;28;20404;-64
2022/07/19 06:47:23;;;;;;;6.68;3.95;;;23.00;61.10;;;;;;10411022;28;20026;-65
2022/07/19 06:52:25;;;;;;;7.35;3.90;;;23.00;61.30;;;;;;10410887;28;20116;-64
2022/07/19 06:57:25;;;;;;;6.50;4.30;;;23.00;61.20;;;;;;10396844;28;20045;-65
2022/07/19 07:02:26;;;;;;;9.93;5.22;;;23.00;61.20;;;;;;10390796;28;20163;-64
2022/07/19 07:07:27;;;;;;;8.18;4.55;;;23.00;61.30;;;;;;10391507;28;20033;-65
2022/07/19 07:12:28;;;;;;;6.75;4.20;;;23.00;61.30;;;;;;10387461;28;20030;-65
2022/07/19 07:17:29;;;;;;;7.50;4.30;;;23.00;61.40;;;;;;10369640;28;20029;-64
2022/07/19 07:22:30;;;;;;;5.05;4.03;;;23.00;61.30;;;;;;10398445;28;20648;-65
2022/07/19 07:27:31;;;;;;;6.45;4.43;;;23.00;61.30;;;;;;10370813;28;20030;-64
2022/07/19 07:32:32;;;;;;;5.65;4.75;;;23.00;61.30;;;;;;10388528;28;20087;-64
2022/07/19 07:37:33;;;;;;;6.57;4.25;;;23.00;61.20;;;;;;10366637;28;20029;-65
2022/07/19 07:42:33;;;;;;;7.65;4.05;;;23.00;61.20;;;;;;10376074;28;20049;-64
2022/07/19 07:47:34;;;;;;;4.22;3.78;;;23.00;60.90;;;;;;10410033;28;20083;-65
2022/07/19 07:52:35;;;;;;;5.65;4.53;;;23.00;60.80;;;;;;10408501;28;20022;-64
2022/07/19 07:57:36;;;;;;;5.85;4.38;;;23.00;60.80;;;;;;10390899;28;20030;-65
2022/07/19 08:02:44;;;;;;;4.28;3.53;;;23.10;60.80;;;;;;10394737;28;20041;-64
2022/07/19 08:07:45;;;;;;;4.80;3.88;;;23.00;60.80;;;;;;10382667;28;20546;-65
2022/07/19 08:12:46;;;;;;;5.50;4.05;;;23.10;61.00;;;;;;10385730;28;20141;-64
2022/07/19 08:17:47;;;;;;;5.43;3.88;;;23.10;63.40;;;;;;10384587;28;20049;-64
2022/07/19 08:22:48;;;;;;;6.05;3.67;;;23.10;63.40;;;;;;10386327;28;20036;-64
2022/07/19 08:27:49;;;;;;;4.85;3.42;;;23.10;61.60;;;;;;10392026;28;20381;-64
2022/07/19 08:32:49;;;;;;;4.25;3.85;;;23.10;61.50;;;;;;10392743;28;20040;-64
2022/07/19 08:37:50;;;;;;;5.43;4.35;;;23.10;61.40;;;;;;10376963;28;20061;-64
2022/07/19 08:42:51;;;;;;;4.43;3.75;;;23.10;61.20;;;;;;10367613;28;20038;-65
2022/07/19 08:47:53;;;;;;;5.20;4.35;;;23.10;61.30;;;;;;10373836;28;20037;-63
2022/07/19 08:52:54;;;;;;;4.97;3.65;;;23.10;61.10;;;;;;10388723;28;20101;-64
2022/07/19 08:57:58;;;;;;;5.97;3.95;;;23.10;61.50;;;;;;10406777;28;20029;-64
2022/07/19 09:03:02;;;;;;;9.20;4.63;;;23.10;61.40;;;;;;10392650;28;20033;-64
2022/07/19 09:08:12;;;;;;;4.65;3.83;;;23.10;61.20;;;;;;10385892;28;20080;-64
2022/07/19 09:13:16;;;;;;;9.55;4.10;;;23.10;61.20;;;;;;10372885;28;20034;-64
2022/07/19 09:18:32;;;;;;;4.35;3.60;;;23.10;61.30;;;;;;10374886;28;20022;-64
2022/07/19 09:23:34;;;;;;;5.85;3.92;;;23.10;61.30;;;;;;10373547;28;20034;-64
2022/07/19 09:28:36;;;;;;;4.53;3.72;;;23.10;61.30;;;;;;10373452;28;20042;-64
2022/07/19 09:33:36;;;;;;;4.70;3.67;;;23.10;61.20;;;;;;10392764;28;20543;-64
2022/07/19 09:38:42;;;;;;;5.82;3.88;;;23.10;61.20;;;;;;10368519;28;20128;-65
2022/07/19 09:44:02;;;;;;;4.32;3.22;;;23.10;61.10;;;;;;10373776;28;20034;-65
2022/07/19 09:49:04;;;;;;;6.38;3.85;;;23.20;61.20;;;;;;10392131;28;20033;-66
2022/07/19 09:54:09;;;;;;;6.93;4.07;;;23.20;61.20;;;;;;10407117;28;20457;-65
2022/07/19 09:59:11;;;;;;;7.55;3.40;;;23.20;61.20;;;;;;10376333;28;20026;-65
2022/07/19 10:04:15;;;;;;;7.55;3.28;;;23.20;61.20;;;;;;10392143;28;20092;-62
2022/07/19 10:09:20;;;;;;;6.90;3.95;;;23.20;61.20;;;;;;10377997;28;20033;-62
2022/07/19 10:14:21;;;;;;;4.38;3.33;;;23.20;61.10;;;;;;10371367;28;20049;-62
2022/07/19 10:19:30;;;;;;;6.57;3.95;;;23.20;61.10;;;;;;10390878;28;20025;-61
2022/07/19 10:24:50;;;;;;;5.05;3.38;;;23.20;61.30;;;;;;10385974;28;20049;-61
2022/07/19 10:29:57;;;;;;;6.15;3.17;;;23.20;61.20;;;;;;10383848;28;20488;-61
2022/07/19 10:35:18;;;;;;;6.35;3.47;;;23.20;61.20;;;;;;10400520;28;20076;-60
2022/07/19 10:40:48;;;;;;;4.40;3.83;;;23.20;61.30;;;;;;10389483;28;20033;-62
2022/07/19 10:45:59;;;;;;;7.72;3.60;;;23.30;61.30;;;;;;10379876;28;20068;-62
2022/07/19 10:51:00;;;;;;;8.65;4.10;;;23.30;61.30;;;;;;10377756;28;20156;-63
2022/07/19 10:56:19;;;;;;;6.53;3.60;;;23.30;61.50;;;;;;10397412;28;20078;-62
2022/07/19 11:01:21;;;;;;;7.32;3.70;;;23.30;61.80;;;;;;10412008;28;20650;-64
2022/07/19 11:06:27;;;;;;;7.20;2.97;;;23.30;61.50;;;;;;10403803;28;20041;-64
2022/07/19 11:11:27;;;;;;;5.25;3.50;;;23.30;61.50;;;;;;10375543;28;20369;-65
2022/07/19 11:16:28;;;;;;;8.88;3.78;;;23.30;61.50;;;;;;10403471;28;20030;-64
2022/07/19 11:21:32;;;;;;;11.55;3.92;;;23.30;61.50;;;;;;10397133;28;20117;-63
2022/07/19 11:26:40;;;;;;;6.93;3.10;;;23.30;61.40;;;;;;10374665;28;20084;-64
2022/07/19 11:31:47;;;;;;;8.05;3.70;;;23.30;61.70;;;;;;10367514;28;20022;-64
2022/07/19 11:36:58;;;;;;;4.38;3.03;;;23.40;63.20;;;;;;10365217;28;20096;-65
2022/07/19 11:41:58;;;;;;;5.30;3.35;;;23.40;62.80;;;;;;10356992;28;20127;-64
2022/07/19 11:46:59;;;;;;;6.88;3.20;;;23.40;61.90;;;;;;10364970;28;20072;-64
2022/07/19 11:52:00;;;;;;;7.20;3.50;;;23.40;62.00;;;;;;10371402;28;20417;-63
2022/07/19 11:57:00;;;;;;;7.65;3.17;;;23.40;62.00;;;;;;10383840;28;20043;-63
2022/07/19 12:02:01;;;;;;;4.50;3.17;;;23.40;62.00;;;;;;10407742;28;20474;-63
2022/07/19 12:07:02;;;;;;;6.20;3.40;;;23.40;61.90;;;;;;10396538;28;20034;-63
2022/07/19 12:12:17;;;;;;;6.00;3.22;;;23.40;61.90;;;;;;10370173;28;20053;-63
2022/07/19 12:17:21;;;;;;;11.35;3.55;;;23.40;61.90;;;;;;10396900;28;20029;-62
2022/07/19 12:22:36;;;;;;;8.38;3.38;;;23.60;64.00;;;;;;10389102;28;20033;-62
2022/07/19 12:27:40;;;;;;;11.40;4.32;;;23.80;64.30;;;;;;10387461;28;20121;-65
2022/07/19 12:32:42;;;;;;;12.32;4.15;;;23.90;64.50;;;;;;10382774;28;20064;-65
2022/07/19 12:37:46;;;;;;;15.23;4.07;;;23.90;64.80;;;;;;10389730;28;20385;-65
2022/07/19 12:42:59;;;;;;;30.05;5.53;;;23.90;65.10;;;;;;10366845;28;20060;-63
2022/07/19 12:48:02;;;;;;;33.78;5.25;;;23.90;66.30;;;;;;10380593;28;20532;-64
2022/07/19 12:53:10;;;;;;;25.30;5.78;;;24.00;67.00;;;;;;10390748;28;20049;-62
2022/07/19 12:58:13;;;;;;;19.00;5.05;;;24.10;67.50;;;;;;10388301;28;20037;-62
2022/07/19 13:03:14;;;;;;;19.50;4.90;;;24.10;67.20;;;;;;10389057;28;20515;-64
2022/07/19 13:08:15;;;;;;;19.45;4.85;;;24.10;67.70;;;;;;10367406;28;20040;-63
2022/07/19 13:13:15;;;;;;;15.90;5.22;;;24.10;67.80;;;;;;10391137;28;20140;-63
2022/07/19 13:18:16;;;;;;;14.05;4.95;;;24.20;68.20;;;;;;10367603;28;20029;-63
2022/07/19 13:23:17;;;;;;;21.13;5.85;;;24.10;68.70;;;;;;10397277;28;20036;-65
2022/07/19 13:28:18;;;;;;;17.08;4.95;;;24.10;68.50;;;;;;10397161;28;20044;-62
2022/07/19 13:33:18;;;;;;;17.67;5.55;;;24.30;68.20;;;;;;10383367;28;20087;-64
2022/07/19 13:38:19;;;;;;;14.43;4.75;;;24.30;68.10;;;;;;10374345;28;20521;-65
2022/07/19 13:43:20;;;;;;;15.95;4.93;;;24.10;67.60;;;;;;10382180;28;20049;-65
2022/07/19 13:48:20;;;;;;;14.45;5.05;;;24.00;67.00;;;;;;10382644;28;20045;-64
2022/07/19 13:53:21;;;;;;;10.38;4.03;;;24.00;66.60;;;;;;10392427;28;20680;-65
2022/07/19 13:58:22;;;;;;;15.38;4.25;;;23.90;66.80;;;;;;10372800;28;20029;-64
2022/07/19 14:03:22;;;;;;;9.65;4.20;;;23.90;65.90;;;;;;10409655;28;20120;-65
2022/07/19 14:08:23;;;;;;;5.88;3.40;;;23.90;66.00;;;;;;10412076;28;20396;-65
2022/07/19 14:13:24;;;;;;;12.48;5.00;;;23.90;65.90;;;;;;10390881;28;20092;-65
2022/07/19 14:18:25;;;;;;;7.22;4.03;;;23.90;65.80;;;;;;10389374;28;20032;-65
2022/07/19 14:23:26;;;;;;;6.45;3.50;;;23.90;66.30;;;;;;10387255;28;20481;-65
2022/07/19 14:28:26;;;;;;;8.77;3.72;;;23.90;65.60;;;;;;10395771;28;20465;-65
2022/07/19 14:33:27;;;;;;;8.13;3.75;;;23.90;65.30;;;;;;10371961;28;20128;-64
2022/07/19 14:38:28;;;;;;;6.93;3.20;;;23.90;65.10;;;;;;10378385;28;20519;-65
2022/07/19 14:43:28;;;;;;;9.32;3.63;;;23.90;64.80;;;;;;10383405;28;20076;-65
2022/07/19 14:48:29;;;;;;;5.45;3.25;;;23.90;64.70;;;;;;10387526;28;20026;-65
2022/07/19 14:53:30;;;;;;;5.75;3.58;;;23.90;64.50;;;;;;10407727;28;20041;-65
2022/07/19 14:58:31;;;;;;;6.00;3.20;;;23.90;64.40;;;;;;10383359;28;20397;-65
2022/07/19 15:03:32;;;;;;;7.57;4.07;;;23.90;64.40;;;;;;10377950;28;20445;-63
2022/07/19 15:08:33;;;;;;;16.83;4.63;;;23.90;66.60;;;;;;10390220;28;20140;-64
2022/07/19 15:13:34;;;;;;;19.63;4.38;;;24.10;66.30;;;;;;10384509;28;20493;-63
2022/07/19 15:18:35;;;;;;;7.90;3.72;;;24.00;65.60;;;;;;10398659;28;20037;-64
2022/07/19 15:23:36;;;;;;;10.00;4.88;;;24.10;65.70;;;;;;10384892;28;20034;-64
2022/07/19 15:28:37;;;;;;;9.13;3.97;;;24.10;65.20;;;;;;10375988;28;20075;-63
2022/07/19 15:33:38;;;;;;;10.23;4.93;;;24.10;65.30;;;;;;10385172;28;20591;-64
2022/07/19 15:38:39;;;;;;;8.32;3.65;;;24.10;65.50;;;;;;10372705;28;20088;-62
2022/07/19 15:43:39;;;;;;;8.68;3.65;;;24.10;65.30;;;;;;10380028;28;20041;-63
2022/07/19 15:48:40;;;;;;;10.15;4.18;;;24.10;65.00;;;;;;10401168;28;20041;-64
2022/07/19 15:53:41;;;;;;;5.68;3.63;;;24.10;64.60;;;;;;10372755;28;20810;-63
2022/07/19 15:58:42;;;;;;;9.75;4.32;;;24.10;63.20;;;;;;10374501;28;20025;-64
2022/07/19 16:03:43;;;;;;;6.10;3.92;;;24.10;63.10;;;;;;10378273;28;20045;-64
2022/07/19 16:08:45;;;;;;;8.63;4.63;;;24.10;63.10;;;;;;10383714;28;20485;-65
2022/07/19 16:13:45;;;;;;;6.13;3.78;;;24.10;62.90;;;;;;10376578;28;20034;-65
2022/07/19 16:18:46;;;;;;;7.05;3.72;;;24.20;66.10;;;;;;10394836;28;20104;-62
2022/07/19 16:23:47;;;;;;;8.45;3.97;;;24.30;65.90;;;;;;10395728;28;20036;-63
2022/07/19 16:28:48;;;;;;;8.23;3.78;;;24.40;65.70;;;;;;10394282;28;20598;-63
2022/07/19 16:33:48;;;;;;;7.75;3.50;;;24.50;65.60;;;;;;10362428;28;20803;-63
2022/07/19 16:38:49;;;;;;;7.53;4.00;;;24.50;65.80;;;;;;10380056;28;20022;-62
2022/07/19 16:43:50;;;;;;;9.68;4.07;;;24.40;65.50;;;;;;10384534;28;20758;-64
2022/07/19 16:48:51;;;;;;;10.45;4.13;;;24.40;65.50;;;;;;10388155;28;20033;-64
2022/07/19 16:53:51;;;;;;;10.25;5.25;;;24.40;65.40;;;;;;10395560;28;20033;-63
2022/07/19 16:58:52;;;;;;;10.82;4.40;;;24.40;65.70;;;;;;10406502;28;20096;-62
2022/07/19 17:03:53;;;;;;;11.65;4.55;;;24.50;65.10;;;;;;10380200;28;20055;-64
2022/07/19 17:08:55;;;;;;;7.18;3.60;;;24.50;65.20;;;;;;10381645;28;20026;-61
2022/07/19 17:13:55;;;;;;;6.28;3.80;;;24.40;65.10;;;;;;10384634;28;20052;-64
2022/07/19 17:18:57;;;;;;;5.75;3.60;;;24.40;65.00;;;;;;10388915;28;20032;-66
2022/07/19 17:23:58;;;;;;;4.07;3.30;;;24.40;64.90;;;;;;10377625;28;20064;-64
2022/07/19 17:28:58;;;;;;;4.05;3.17;;;24.40;64.80;;;;;;10383145;28;20030;-64
2022/07/19 17:33:59;;;;;;;8.65;3.38;;;24.40;64.60;;;;;;10395193;28;20037;-64
2022/07/19 17:39:00;;;;;;;9.90;3.28;;;24.40;64.40;;;;;;10385978;28;20049;-64
2022/07/19 17:44:01;;;;;;;7.32;3.53;;;24.40;64.20;;;;;;10387633;28;20641;-64
2022/07/19 17:49:02;;;;;;;8.65;3.72;;;24.40;64.00;;;;;;10384544;28;20030;-64
2022/07/19 17:54:03;;;;;;;7.88;3.55;;;24.40;63.70;;;;;;10391914;28;20026;-64
2022/07/19 17:59:03;;;;;;;5.32;3.63;;;24.40;63.80;;;;;;10390950;28;20022;-64
2022/07/19 18:04:04;;;;;;;7.60;2.90;;;24.40;63.80;;;;;;10393390;28;20030;-65
2022/07/19 18:09:05;;;;;;;5.00;2.80;;;24.50;64.10;;;;;;10389088;28;20465;-66
2022/07/19 18:14:08;;;;;;;5.70;3.53;;;24.50;64.10;;;;;;10378925;28;20034;-65
2022/07/19 18:19:09;;;;;;;5.95;2.92;;;24.50;64.30;;;;;;10384698;28;20386;-66
2022/07/19 18:24:09;;;;;;;5.43;3.35;;;24.50;64.50;;;;;;10379191;28;20033;-66
2022/07/19 18:29:11;;;;;;;4.97;3.08;;;24.50;64.70;;;;;;10393071;28;20035;-63
2022/07/19 18:34:11;;;;;;;12.35;3.42;;;24.50;64.40;;;;;;10394396;28;20045;-62
2022/07/19 18:39:12;;;;;;;6.88;3.28;;;24.50;64.50;;;;;;10388371;28;20042;-62
2022/07/19 18:44:13;;;;;;;6.85;3.55;;;24.50;64.50;;;;;;10383159;28;20042;-62
2022/07/19 18:49:13;;;;;;;6.47;3.10;;;24.50;64.30;;;;;;10391156;28;20521;-62
2022/07/19 18:54:15;;;;;;;7.20;3.63;;;24.50;64.30;;;;;;10384467;28;20479;-62
2022/07/19 18:59:15;;;;;;;4.95;2.85;;;24.50;64.40;;;;;;10385576;28;20022;-63
2022/07/19 19:04:16;;;;;;;7.35;3.78;;;24.50;64.30;;;;;;10385258;28;20481;-63
2022/07/19 19:09:17;;;;;;;5.65;3.22;;;24.50;64.20;;;;;;10386434;28;20021;-63
2022/07/19 19:14:17;;;;;;;7.78;3.53;;;24.40;64.80;;;;;;10407670;28;20037;-63
2022/07/19 19:19:18;;;;;;;8.32;3.35;;;24.50;64.10;;;;;;10395822;28;20034;-63
2022/07/19 19:24:19;;;;;;;4.97;2.85;;;24.40;63.90;;;;;;10395358;28;20033;-63
2022/07/19 19:29:20;;;;;;;8.10;3.10;;;24.40;63.90;;;;;;10374143;28;20591;-62
2022/07/19 19:34:20;;;;;;;7.00;3.38;;;24.40;63.90;;;;;;10381601;28;20038;-62
2022/07/19 19:39:21;;;;;;;7.05;3.30;;;24.50;64.00;;;;;;10398569;28;20041;-63
2022/07/19 19:44:22;;;;;;;4.60;3.85;;;24.50;63.90;;;;;;10390655;28;20053;-63
2022/07/19 19:49:23;;;;;;;7.03;2.97;;;24.50;63.80;;;;;;10363212;28;20351;-63
2022/07/19 19:54:23;;;;;;;5.53;3.15;;;24.50;63.70;;;;;;10386604;28;20030;-63
2022/07/19 19:59:24;;;;;;;5.53;2.92;;;24.50;63.60;;;;;;10383425;28;20026;-63
2022/07/19 20:04:25;;;;;;;5.47;3.35;;;24.50;63.60;;;;;;10395092;28;20095;-63
2022/07/19 20:09:27;;;;;;;6.18;3.80;;;24.50;63.50;;;;;;10379093;28;20112;-62
2022/07/19 20:14:27;;;;;;;5.57;3.00;;;24.50;63.40;;;;;;10367015;28;20037;-63
2022/07/19 20:19:28;;;;;;;8.02;3.10;;;24.50;63.40;;;;;;10380563;28;20032;-63
2022/07/19 20:24:29;;;;;;;4.75;2.92;;;24.50;63.30;;;;;;10373342;28;20392;-63
2022/07/19 20:29:30;;;;;;;5.18;4.07;;;24.50;63.30;;;;;;10374145;28;20124;-62
2022/07/19 20:34:31;;;;;;;4.68;2.78;;;24.50;63.20;;;;;;10364563;28;20028;-62
2022/07/19 20:39:32;;;;;;;5.38;3.20;;;24.50;63.20;;;;;;10365890;28;20134;-63
2022/07/19 20:44:33;;;;;;;4.40;3.13;;;24.50;63.10;;;;;;10364806;28;20558;-63
2022/07/19 20:49:33;;;;;;;4.25;2.55;;;24.50;63.10;;;;;;10376880;28;20021;-62
2022/07/19 20:54:34;;;;;;;6.97;3.20;;;24.50;63.10;;;;;;10356928;28;20064;-62
2022/07/19 20:59:35;;;;;;;4.70;2.95;;;24.50;63.10;;;;;;10381799;28;20029;-62
2022/07/19 21:04:35;;;;;;;5.25;3.22;;;24.50;63.10;;;;;;10384624;28;20033;-63
2022/07/19 21:09:36;;;;;;;5.20;3.30;;;24.50;63.10;;;;;;10375521;28;20030;-62
2022/07/19 21:14:37;;;;;;;4.97;3.05;;;24.50;63.00;;;;;;10395421;28;20032;-62
2022/07/19 21:19:38;;;;;;;4.30;2.85;;;24.50;63.00;;;;;;10389008;28;20026;-62
2022/07/19 21:24:38;;;;;;;4.38;2.58;;;24.50;63.00;;;;;;10373912;28;20034;-62
2022/07/19 21:29:39;;;;;;;5.10;3.17;;;24.50;63.00;;;;;;10385658;28;20080;-62
2022/07/19 21:34:40;;;;;;;4.95;3.42;;;24.50;62.90;;;;;;10374647;28;20034;-62
2022/07/19 21:39:41;;;;;;;3.63;2.58;;;24.50;62.80;;;;;;10356703;28;20050;-62
2022/07/19 21:44:41;;;;;;;6.95;2.75;;;24.60;63.00;;;;;;10397651;28;20034;-62
2022/07/19 21:49:42;;;;;;;3.30;2.80;;;24.60;62.90;;;;;;10388750;28;20043;-62
2022/07/19 21:54:43;;;;;;;3.80;2.38;;;24.50;62.80;;;;;;10381449;28;20084;-62
2022/07/19 21:59:43;;;;;;;3.65;2.60;;;24.50;62.70;;;;;;10410839;28;20450;-62
2022/07/19 22:04:44;;;;;;;3.60;2.35;;;24.50;62.70;;;;;;10413180;28;20030;-63
2022/07/19 22:09:45;;;;;;;4.30;3.35;;;24.50;62.70;;;;;;10412607;28;20060;-62
2022/07/19 22:14:46;;;;;;;3.50;2.38;;;24.50;62.70;;;;;;10384687;28;20104;-62
2022/07/19 22:19:46;;;;;;;4.15;2.70;;;24.50;62.70;;;;;;10413630;28;20078;-63
2022/07/19 22:24:47;;;;;;;2.83;2.22;;;24.50;62.70;;;;;;10381842;28;20568;-62
2022/07/19 22:29:48;;;;;;;4.50;2.63;;;24.50;62.70;;;;;;10388950;28;20030;-62
2022/07/19 22:34:50;;;;;;;5.00;2.88;;;24.50;62.60;;;;;;10384531;28;20421;-62
2022/07/19 22:39:51;;;;;;;4.05;2.85;;;24.60;62.70;;;;;;10404428;28;20139;-63
2022/07/19 22:44:51;;;;;;;3.22;2.38;;;24.50;62.60;;;;;;10389923;28;20038;-62
2022/07/19 22:49:52;;;;;;;4.32;2.25;;;24.50;62.50;;;;;;10399634;28;20035;-64
2022/07/19 22:54:53;;;;;;;5.43;3.17;;;24.50;62.50;;;;;;10387325;28;20052;-62
2022/07/19 22:59:54;;;;;;;4.90;2.58;;;24.60;62.60;;;;;;10370334;28;20105;-62
2022/07/19 23:04:54;;;;;;;3.90;2.35;;;24.60;62.60;;;;;;10395069;28;20140;-62
2022/07/19 23:09:55;;;;;;;4.38;2.60;;;24.60;62.50;;;;;;10393966;28;20046;-62
2022/07/19 23:14:55;;;;;;;4.20;2.95;;;24.60;62.50;;;;;;10395915;28;20474;-62
2022/07/19 23:19:56;;;;;;;3.10;2.15;;;24.50;62.50;;;;;;10370965;28;20113;-62
2022/07/19 23:24:57;;;;;;;4.05;2.30;;;24.60;62.50;;;;;;10393651;28;20042;-62
2022/07/19 23:29:58;;;;;;;3.63;2.17;;;24.60;62.40;;;;;;10378118;28;20038;-62
2022/07/19 23:34:58;;;;;;;4.85;2.33;;;24.60;62.40;;;;;;10369001;28;20030;-62
2022/07/19 23:39:59;;;;;;;3.75;2.55;;;24.60;62.50;;;;;;10378947;28;20074;-62
2022/07/19 23:45:00;;;;;;;3.08;2.15;;;24.50;62.40;;;;;;10368520;28;20488;-62
2022/07/19 23:50:00;;;;;;;4.45;2.50;;;24.50;62.40;;;;;;10368405;28;20470;-62
2022/07/19 23:55:01;;;;;;;2.40;2.10;;;24.60;62.30;;;;;;10401547;28;20038;-62
